sensor_id;sensor_type;location;lat;lon;timestamp;P1;durP1;ratioP1;P2;durP2;ratioP2
13560;SDS011;6852;51.686;5.314;2022-09-01T00:02:27;2.97;;;1.13;;
13560;SDS011;6852;51.686;5.314;2022-09-01T00:04:55;2.43;;;0.90;;
13560;SDS011;6852;51.686;5.314;2022-09-01T00:07:26;1.47;;;1.00;;
13560;SDS011;6852;51.686;5.314;2022-09-01T00:09:57;1.20;;;1.07;;
13560;SDS011;6852;51.686;5.314;2022-09-01T00:12:25;2.97;;;1.23;;
13560;SDS011;6852;51.686;5.314;2022-09-01T00:14:53;1.47;;;1.20;;
13560;SDS011;6852;51.686;5.314;2022-09-01T00:17:19;0.97;;;0.87;;
13560;SDS011;6852;51.686;5.314;2022-09-01T00:19:47;1.57;;;1.33;;
13560;SDS011;6852;51.686;5.314;2022-09-01T00:22:14;1.37;;;1.20;;
13560;SDS011;6852;51.686;5.314;2022-09-01T00:24:41;1.93;;;1.13;;
13560;SDS011;6852;51.686;5.314;2022-09-01T00:27:08;1.03;;;0.80;;
13560;SDS011;6852;51.686;5.314;2022-09-01T00:29:35;2.13;;;0.90;;
13560;SDS011;6852;51.686;5.314;2022-09-01T00:32:02;1.53;;;1.03;;
13560;SDS011;6852;51.686;5.314;2022-09-01T00:34:29;1.10;;;1.00;;
13560;SDS011;6852;51.686;5.314;2022-09-01T00:36:56;1.57;;;1.10;;
13560;SDS011;6852;51.686;5.314;2022-09-01T00:39:23;2.80;;;0.90;;
13560;SDS011;6852;51.686;5.314;2022-09-01T00:41:50;2.67;;;1.00;;
13560;SDS011;6852;51.686;5.314;2022-09-01T00:44:18;2.37;;;1.20;;
13560;SDS011;6852;51.686;5.314;2022-09-01T00:46:55;1.33;;;1.00;;
13560;SDS011;6852;51.686;5.314;2022-09-01T00:49:27;3.70;;;1.20;;
13560;SDS011;6852;51.686;5.314;2022-09-01T00:52:43;1.27;;;1.03;;
13560;SDS011;6852;51.686;5.314;2022-09-01T00:55:05;4.00;;;1.20;;
13560;SDS011;6852;51.686;5.314;2022-09-01T00:57:36;2.07;;;1.10;;
13560;SDS011;6852;51.686;5.314;2022-09-01T01:00:15;8.47;;;1.80;;
13560;SDS011;6852;51.686;5.314;2022-09-01T01:02:45;2.63;;;1.30;;
13560;SDS011;6852;51.686;5.314;2022-09-01T01:05:14;3.13;;;1.20;;
13560;SDS011;6852;51.686;5.314;2022-09-01T01:07:42;2.93;;;1.50;;
13560;SDS011;6852;51.686;5.314;2022-09-01T01:10:13;1.53;;;1.40;;
13560;SDS011;6852;51.686;5.314;2022-09-01T01:12:42;2.00;;;1.20;;
13560;SDS011;6852;51.686;5.314;2022-09-01T01:15:11;1.40;;;1.07;;
13560;SDS011;6852;51.686;5.314;2022-09-01T01:17:38;3.77;;;1.27;;
13560;SDS011;6852;51.686;5.314;2022-09-01T01:20:06;1.83;;;1.43;;
13560;SDS011;6852;51.686;5.314;2022-09-01T01:23:01;3.33;;;1.43;;
13560;SDS011;6852;51.686;5.314;2022-09-01T01:28:19;1.40;;;1.30;;
13560;SDS011;6852;51.686;5.314;2022-09-01T01:31:25;1.57;;;1.40;;
13560;SDS011;6852;51.686;5.314;2022-09-01T01:33:52;2.00;;;1.40;;
13560;SDS011;6852;51.686;5.314;2022-09-01T01:36:26;2.07;;;1.50;;
13560;SDS011;6852;51.686;5.314;2022-09-01T01:38:59;1.80;;;1.33;;
13560;SDS011;6852;51.686;5.314;2022-09-01T01:41:30;3.83;;;1.70;;
13560;SDS011;6852;51.686;5.314;2022-09-01T01:43:58;2.80;;;1.50;;
13560;SDS011;6852;51.686;5.314;2022-09-01T01:46:30;1.90;;;1.43;;
13560;SDS011;6852;51.686;5.314;2022-09-01T01:48:59;1.37;;;1.13;;
13560;SDS011;6852;51.686;5.314;2022-09-01T01:51:27;2.20;;;1.60;;
13560;SDS011;6852;51.686;5.314;2022-09-01T01:53:57;2.90;;;1.57;;
13560;SDS011;6852;51.686;5.314;2022-09-01T01:56:31;2.80;;;1.37;;
13560;SDS011;6852;51.686;5.314;2022-09-01T01:59:01;2.80;;;1.50;;
13560;SDS011;6852;51.686;5.314;2022-09-01T02:01:28;2.60;;;1.40;;
13560;SDS011;6852;51.686;5.314;2022-09-01T02:03:58;3.23;;;1.60;;
13560;SDS011;6852;51.686;5.314;2022-09-01T02:06:26;1.43;;;1.27;;
13560;SDS011;6852;51.686;5.314;2022-09-01T02:08:55;2.80;;;1.40;;
13560;SDS011;6852;51.686;5.314;2022-09-01T02:11:24;3.10;;;1.43;;
13560;SDS011;6852;51.686;5.314;2022-09-01T02:13:52;1.90;;;1.40;;
13560;SDS011;6852;51.686;5.314;2022-09-01T02:16:26;1.37;;;1.27;;
13560;SDS011;6852;51.686;5.314;2022-09-01T02:18:55;5.00;;;1.47;;
13560;SDS011;6852;51.686;5.314;2022-09-01T02:21:22;3.23;;;1.73;;
13560;SDS011;6852;51.686;5.314;2022-09-01T02:23:51;2.23;;;1.30;;
13560;SDS011;6852;51.686;5.314;2022-09-01T02:26:31;2.90;;;1.50;;
13560;SDS011;6852;51.686;5.314;2022-09-01T02:29:04;3.57;;;1.50;;
13560;SDS011;6852;51.686;5.314;2022-09-01T02:31:35;2.30;;;1.50;;
13560;SDS011;6852;51.686;5.314;2022-09-01T02:34:06;2.27;;;1.67;;
13560;SDS011;6852;51.686;5.314;2022-09-01T02:36:40;2.40;;;2.17;;
13560;SDS011;6852;51.686;5.314;2022-09-01T02:39:25;3.40;;;1.53;;
13560;SDS011;6852;51.686;5.314;2022-09-01T02:41:54;1.70;;;1.30;;
13560;SDS011;6852;51.686;5.314;2022-09-01T02:44:21;2.10;;;1.53;;
13560;SDS011;6852;51.686;5.314;2022-09-01T02:46:48;3.10;;;1.90;;
13560;SDS011;6852;51.686;5.314;2022-09-01T02:49:20;2.47;;;1.70;;
13560;SDS011;6852;51.686;5.314;2022-09-01T02:51:51;4.47;;;1.80;;
13560;SDS011;6852;51.686;5.314;2022-09-01T02:54:20;1.50;;;1.40;;
13560;SDS011;6852;51.686;5.314;2022-09-01T02:56:48;1.80;;;1.60;;
13560;SDS011;6852;51.686;5.314;2022-09-01T02:59:17;4.23;;;1.73;;
13560;SDS011;6852;51.686;5.314;2022-09-01T03:01:50;4.50;;;1.90;;
13560;SDS011;6852;51.686;5.314;2022-09-01T03:04:19;1.63;;;1.40;;
13560;SDS011;6852;51.686;5.314;2022-09-01T03:06:47;4.07;;;1.70;;
13560;SDS011;6852;51.686;5.314;2022-09-01T03:09:16;3.67;;;1.60;;
13560;SDS011;6852;51.686;5.314;2022-09-01T03:11:46;3.43;;;1.83;;
13560;SDS011;6852;51.686;5.314;2022-09-01T03:14:15;4.03;;;1.87;;
13560;SDS011;6852;51.686;5.314;2022-09-01T03:16:42;3.97;;;1.73;;
13560;SDS011;6852;51.686;5.314;2022-09-01T03:19:09;2.30;;;2.00;;
13560;SDS011;6852;51.686;5.314;2022-09-01T03:21:38;1.50;;;1.37;;
13560;SDS011;6852;51.686;5.314;2022-09-01T03:24:10;4.63;;;2.10;;
13560;SDS011;6852;51.686;5.314;2022-09-01T03:26:40;2.67;;;1.83;;
13560;SDS011;6852;51.686;5.314;2022-09-01T03:29:09;1.67;;;1.57;;
13560;SDS011;6852;51.686;5.314;2022-09-01T03:31:36;2.57;;;1.83;;
13560;SDS011;6852;51.686;5.314;2022-09-01T03:34:03;3.73;;;1.80;;
13560;SDS011;6852;51.686;5.314;2022-09-01T03:36:31;1.83;;;1.50;;
13560;SDS011;6852;51.686;5.314;2022-09-01T03:38:59;1.80;;;1.60;;
13560;SDS011;6852;51.686;5.314;2022-09-01T03:41:27;2.10;;;1.90;;
13560;SDS011;6852;51.686;5.314;2022-09-01T03:43:56;1.70;;;1.60;;
13560;SDS011;6852;51.686;5.314;2022-09-01T03:46:25;2.00;;;1.53;;
13560;SDS011;6852;51.686;5.314;2022-09-01T03:49:01;3.73;;;1.90;;
13560;SDS011;6852;51.686;5.314;2022-09-01T03:51:31;5.60;;;1.60;;
13560;SDS011;6852;51.686;5.314;2022-09-01T03:53:59;3.30;;;1.77;;
13560;SDS011;6852;51.686;5.314;2022-09-01T03:56:26;2.87;;;1.50;;
13560;SDS011;6852;51.686;5.314;2022-09-01T03:58:55;2.70;;;1.67;;
13560;SDS011;6852;51.686;5.314;2022-09-01T04:01:24;4.03;;;1.80;;
13560;SDS011;6852;51.686;5.314;2022-09-01T04:03:52;3.07;;;1.73;;
13560;SDS011;6852;51.686;5.314;2022-09-01T04:06:19;2.17;;;1.90;;
13560;SDS011;6852;51.686;5.314;2022-09-01T04:08:49;3.17;;;1.83;;
13560;SDS011;6852;51.686;5.314;2022-09-01T04:11:28;3.20;;;1.70;;
13560;SDS011;6852;51.686;5.314;2022-09-01T04:13:56;3.03;;;1.60;;
13560;SDS011;6852;51.686;5.314;2022-09-01T04:16:27;2.10;;;1.70;;
13560;SDS011;6852;51.686;5.314;2022-09-01T04:19:16;2.13;;;1.50;;
13560;SDS011;6852;51.686;5.314;2022-09-01T04:21:55;4.27;;;1.80;;
13560;SDS011;6852;51.686;5.314;2022-09-01T04:24:25;1.97;;;1.77;;
13560;SDS011;6852;51.686;5.314;2022-09-01T04:26:55;2.90;;;2.20;;
13560;SDS011;6852;51.686;5.314;2022-09-01T04:29:24;3.30;;;1.73;;
13560;SDS011;6852;51.686;5.314;2022-09-01T04:31:58;2.00;;;1.70;;
13560;SDS011;6852;51.686;5.314;2022-09-01T04:34:29;1.90;;;1.80;;
13560;SDS011;6852;51.686;5.314;2022-09-01T04:37:06;2.00;;;1.80;;
13560;SDS011;6852;51.686;5.314;2022-09-01T04:39:38;4.60;;;1.77;;
13560;SDS011;6852;51.686;5.314;2022-09-01T04:42:18;3.73;;;2.00;;
13560;SDS011;6852;51.686;5.314;2022-09-01T04:44:51;1.83;;;1.70;;
13560;SDS011;6852;51.686;5.314;2022-09-01T04:47:19;3.70;;;2.20;;
13560;SDS011;6852;51.686;5.314;2022-09-01T04:50:01;2.10;;;1.77;;
13560;SDS011;6852;51.686;5.314;2022-09-01T04:52:29;3.30;;;1.90;;
13560;SDS011;6852;51.686;5.314;2022-09-01T04:54:57;2.17;;;1.60;;
13560;SDS011;6852;51.686;5.314;2022-09-01T04:57:23;6.93;;;1.80;;
13560;SDS011;6852;51.686;5.314;2022-09-01T04:59:53;3.13;;;2.20;;
13560;SDS011;6852;51.686;5.314;2022-09-01T05:02:21;1.93;;;1.67;;
13560;SDS011;6852;51.686;5.314;2022-09-01T05:04:52;4.27;;;1.83;;
13560;SDS011;6852;51.686;5.314;2022-09-01T05:07:19;3.77;;;1.87;;
13560;SDS011;6852;51.686;5.314;2022-09-01T05:09:46;3.27;;;1.63;;
13560;SDS011;6852;51.686;5.314;2022-09-01T05:12:13;2.27;;;1.73;;
13560;SDS011;6852;51.686;5.314;2022-09-01T05:14:43;4.07;;;2.00;;
13560;SDS011;6852;51.686;5.314;2022-09-01T05:17:14;2.80;;;1.83;;
13560;SDS011;6852;51.686;5.314;2022-09-01T05:19:42;5.27;;;1.90;;
13560;SDS011;6852;51.686;5.314;2022-09-01T05:22:13;3.67;;;2.00;;
13560;SDS011;6852;51.686;5.314;2022-09-01T05:24:40;3.33;;;1.80;;
13560;SDS011;6852;51.686;5.314;2022-09-01T05:27:08;2.83;;;2.00;;
13560;SDS011;6852;51.686;5.314;2022-09-01T05:29:36;2.60;;;1.80;;
13560;SDS011;6852;51.686;5.314;2022-09-01T05:32:03;2.93;;;1.80;;
13560;SDS011;6852;51.686;5.314;2022-09-01T05:34:35;3.17;;;2.10;;
13560;SDS011;6852;51.686;5.314;2022-09-01T05:37:04;4.07;;;1.90;;
13560;SDS011;6852;51.686;5.314;2022-09-01T05:39:35;3.03;;;1.83;;
13560;SDS011;6852;51.686;5.314;2022-09-01T05:42:03;3.27;;;1.93;;
13560;SDS011;6852;51.686;5.314;2022-09-01T05:44:33;2.70;;;2.10;;
13560;SDS011;6852;51.686;5.314;2022-09-01T05:47:01;4.13;;;2.40;;
13560;SDS011;6852;51.686;5.314;2022-09-01T05:49:30;9.63;;;1.97;;
13560;SDS011;6852;51.686;5.314;2022-09-01T05:51:58;4.27;;;2.00;;
13560;SDS011;6852;51.686;5.314;2022-09-01T05:54:25;3.20;;;1.90;;
13560;SDS011;6852;51.686;5.314;2022-09-01T05:56:54;2.40;;;1.93;;
13560;SDS011;6852;51.686;5.314;2022-09-01T05:59:44;5.57;;;1.77;;
13560;SDS011;6852;51.686;5.314;2022-09-01T06:02:12;1.83;;;1.57;;
13560;SDS011;6852;51.686;5.314;2022-09-01T06:04:39;4.83;;;1.83;;
13560;SDS011;6852;51.686;5.314;2022-09-01T06:07:06;3.43;;;2.17;;
13560;SDS011;6852;51.686;5.314;2022-09-01T06:09:42;2.80;;;1.97;;
13560;SDS011;6852;51.686;5.314;2022-09-01T06:12:13;1.87;;;1.60;;
13560;SDS011;6852;51.686;5.314;2022-09-01T06:14:49;2.93;;;1.60;;
13560;SDS011;6852;51.686;5.314;2022-09-01T06:17:19;4.83;;;1.90;;
13560;SDS011;6852;51.686;5.314;2022-09-01T06:19:51;5.00;;;1.80;;
13560;SDS011;6852;51.686;5.314;2022-09-01T06:22:21;2.87;;;1.60;;
13560;SDS011;6852;51.686;5.314;2022-09-01T06:24:49;2.00;;;1.80;;
13560;SDS011;6852;51.686;5.314;2022-09-01T06:27:26;2.67;;;1.53;;
13560;SDS011;6852;51.686;5.314;2022-09-01T06:29:53;2.60;;;1.83;;
13560;SDS011;6852;51.686;5.314;2022-09-01T06:32:20;3.20;;;1.53;;
13560;SDS011;6852;51.686;5.314;2022-09-01T06:34:47;1.60;;;1.50;;
13560;SDS011;6852;51.686;5.314;2022-09-01T06:37:16;2.40;;;1.83;;
13560;SDS011;6852;51.686;5.314;2022-09-01T06:39:48;5.17;;;1.40;;
13560;SDS011;6852;51.686;5.314;2022-09-01T06:42:16;7.67;;;2.10;;
13560;SDS011;6852;51.686;5.314;2022-09-01T06:44:44;2.93;;;1.73;;
13560;SDS011;6852;51.686;5.314;2022-09-01T06:47:11;3.30;;;2.00;;
13560;SDS011;6852;51.686;5.314;2022-09-01T06:49:38;2.40;;;1.50;;
13560;SDS011;6852;51.686;5.314;2022-09-01T06:52:06;1.87;;;1.50;;
13560;SDS011;6852;51.686;5.314;2022-09-01T06:54:33;3.83;;;1.50;;
13560;SDS011;6852;51.686;5.314;2022-09-01T06:57:01;4.83;;;2.07;;
13560;SDS011;6852;51.686;5.314;2022-09-01T06:59:50;2.80;;;2.03;;
13560;SDS011;6852;51.686;5.314;2022-09-01T07:02:19;1.60;;;1.50;;
13560;SDS011;6852;51.686;5.314;2022-09-01T07:05:07;4.57;;;1.77;;
13560;SDS011;6852;51.686;5.314;2022-09-01T07:07:54;3.20;;;1.40;;
13560;SDS011;6852;51.686;5.314;2022-09-01T07:10:30;3.80;;;1.50;;
13560;SDS011;6852;51.686;5.314;2022-09-01T07:12:57;2.93;;;1.53;;
13560;SDS011;6852;51.686;5.314;2022-09-01T07:15:38;2.67;;;1.40;;
13560;SDS011;6852;51.686;5.314;2022-09-01T07:18:25;5.40;;;2.00;;
13560;SDS011;6852;51.686;5.314;2022-09-01T07:20:54;1.83;;;1.40;;
13560;SDS011;6852;51.686;5.314;2022-09-01T07:23:41;1.53;;;1.40;;
13560;SDS011;6852;51.686;5.314;2022-09-01T07:26:31;2.90;;;1.43;;
13560;SDS011;6852;51.686;5.314;2022-09-01T07:29:01;4.33;;;1.67;;
13560;SDS011;6852;51.686;5.314;2022-09-01T07:31:33;5.30;;;1.80;;
13560;SDS011;6852;51.686;5.314;2022-09-01T07:34:24;2.00;;;1.63;;
13560;SDS011;6852;51.686;5.314;2022-09-01T07:37:06;1.90;;;1.30;;
13560;SDS011;6852;51.686;5.314;2022-09-01T07:39:53;2.07;;;1.30;;
13560;SDS011;6852;51.686;5.314;2022-09-01T07:42:47;1.70;;;1.50;;
13560;SDS011;6852;51.686;5.314;2022-09-01T07:45:35;1.30;;;1.20;;
13560;SDS011;6852;51.686;5.314;2022-09-01T07:48:12;5.83;;;1.43;;
13560;SDS011;6852;51.686;5.314;2022-09-01T07:51:03;3.47;;;2.40;;
13560;SDS011;6852;51.686;5.314;2022-09-01T07:53:50;2.57;;;1.50;;
13560;SDS011;6852;51.686;5.314;2022-09-01T07:56:18;3.23;;;1.70;;
13560;SDS011;6852;51.686;5.314;2022-09-01T07:58:48;3.13;;;1.63;;
13560;SDS011;6852;51.686;5.314;2022-09-01T08:01:20;2.60;;;1.60;;
13560;SDS011;6852;51.686;5.314;2022-09-01T08:03:54;2.27;;;1.67;;
13560;SDS011;6852;51.686;5.314;2022-09-01T08:06:24;3.60;;;1.73;;
13560;SDS011;6852;51.686;5.314;2022-09-01T08:08:54;5.13;;;1.80;;
13560;SDS011;6852;51.686;5.314;2022-09-01T08:11:25;3.83;;;1.70;;
13560;SDS011;6852;51.686;5.314;2022-09-01T08:14:14;5.93;;;1.70;;
13560;SDS011;6852;51.686;5.314;2022-09-01T08:16:43;3.60;;;1.63;;
13560;SDS011;6852;51.686;5.314;2022-09-01T08:19:18;3.17;;;1.60;;
13560;SDS011;6852;51.686;5.314;2022-09-01T08:21:45;3.13;;;1.70;;
13560;SDS011;6852;51.686;5.314;2022-09-01T08:24:12;5.20;;;1.30;;
13560;SDS011;6852;51.686;5.314;2022-09-01T08:26:39;4.20;;;1.40;;
13560;SDS011;6852;51.686;5.314;2022-09-01T08:29:06;10.03;;;2.83;;
13560;SDS011;6852;51.686;5.314;2022-09-01T08:31:33;5.53;;;1.80;;
13560;SDS011;6852;51.686;5.314;2022-09-01T08:34:00;5.70;;;1.40;;
13560;SDS011;6852;51.686;5.314;2022-09-01T08:36:30;10.13;;;1.90;;
13560;SDS011;6852;51.686;5.314;2022-09-01T08:38:57;2.60;;;1.23;;
13560;SDS011;6852;51.686;5.314;2022-09-01T08:46:54;9.67;;;1.83;;
13560;SDS011;6852;51.686;5.314;2022-09-01T08:49:26;3.73;;;1.40;;
13560;SDS011;6852;51.686;5.314;2022-09-01T08:57:31;4.57;;;2.57;;
13560;SDS011;6852;51.686;5.314;2022-09-01T09:00:05;5.37;;;2.03;;
13560;SDS011;6852;51.686;5.314;2022-09-01T09:02:41;4.30;;;1.43;;
13560;SDS011;6852;51.686;5.314;2022-09-01T09:08:43;3.27;;;1.33;;
13560;SDS011;6852;51.686;5.314;2022-09-01T09:16:59;2.90;;;1.27;;
13560;SDS011;6852;51.686;5.314;2022-09-01T09:21:56;5.10;;;1.73;;
13560;SDS011;6852;51.686;5.314;2022-09-01T09:27:19;6.77;;;1.63;;
13560;SDS011;6852;51.686;5.314;2022-09-01T09:29:51;1.93;;;1.20;;
13560;SDS011;6852;51.686;5.314;2022-09-01T09:32:19;3.17;;;1.20;;
13560;SDS011;6852;51.686;5.314;2022-09-01T09:34:53;5.80;;;1.27;;
13560;SDS011;6852;51.686;5.314;2022-09-01T09:37:27;1.80;;;0.97;;
13560;SDS011;6852;51.686;5.314;2022-09-01T09:45:21;2.77;;;1.07;;
13560;SDS011;6852;51.686;5.314;2022-09-01T09:47:54;2.10;;;1.27;;
13560;SDS011;6852;51.686;5.314;2022-09-01T09:55:58;2.63;;;1.10;;
13560;SDS011;6852;51.686;5.314;2022-09-01T09:58:44;1.13;;;0.80;;
13560;SDS011;6852;51.686;5.314;2022-09-01T10:01:14;2.20;;;0.80;;
13560;SDS011;6852;51.686;5.314;2022-09-01T10:03:56;1.43;;;1.00;;
13560;SDS011;6852;51.686;5.314;2022-09-01T10:06:42;2.70;;;0.97;;
13560;SDS011;6852;51.686;5.314;2022-09-01T10:09:56;1.40;;;0.80;;
13560;SDS011;6852;51.686;5.314;2022-09-01T10:12:03;4.03;;;0.97;;
13560;SDS011;6852;51.686;5.314;2022-09-01T10:14:34;1.50;;;0.80;;
13560;SDS011;6852;51.686;5.314;2022-09-01T10:17:19;3.63;;;1.10;;
13560;SDS011;6852;51.686;5.314;2022-09-01T10:19:53;2.30;;;0.90;;
13560;SDS011;6852;51.686;5.314;2022-09-01T10:22:23;1.70;;;1.23;;
13560;SDS011;6852;51.686;5.314;2022-09-01T10:24:51;2.20;;;1.10;;
13560;SDS011;6852;51.686;5.314;2022-09-01T10:27:22;3.30;;;0.90;;
13560;SDS011;6852;51.686;5.314;2022-09-01T10:32:52;4.60;;;1.10;;
13560;SDS011;6852;51.686;5.314;2022-09-01T10:35:44;1.97;;;0.83;;
13560;SDS011;6852;51.686;5.314;2022-09-01T10:38:14;1.90;;;0.80;;
13560;SDS011;6852;51.686;5.314;2022-09-01T10:40:54;1.60;;;0.63;;
13560;SDS011;6852;51.686;5.314;2022-09-01T10:43:45;2.77;;;0.70;;
13560;SDS011;6852;51.686;5.314;2022-09-01T10:48:55;1.80;;;0.70;;
13560;SDS011;6852;51.686;5.314;2022-09-01T10:54:03;4.40;;;0.80;;
13560;SDS011;6852;51.686;5.314;2022-09-01T10:56:39;2.50;;;0.70;;
13560;SDS011;6852;51.686;5.314;2022-09-01T10:59:29;2.67;;;0.90;;
13560;SDS011;6852;51.686;5.314;2022-09-01T11:02:14;1.57;;;1.10;;
13560;SDS011;6852;51.686;5.314;2022-09-01T11:07:29;4.00;;;1.20;;
13560;SDS011;6852;51.686;5.314;2022-09-01T11:13:16;2.13;;;0.80;;
13560;SDS011;6852;51.686;5.314;2022-09-01T11:15:48;2.20;;;0.80;;
13560;SDS011;6852;51.686;5.314;2022-09-01T11:18:17;1.77;;;1.10;;
13560;SDS011;6852;51.686;5.314;2022-09-01T11:20:52;1.20;;;0.90;;
13560;SDS011;6852;51.686;5.314;2022-09-01T11:23:27;1.70;;;0.87;;
13560;SDS011;6852;51.686;5.314;2022-09-01T11:25:57;3.07;;;0.80;;
13560;SDS011;6852;51.686;5.314;2022-09-01T11:28:48;0.85;;;0.70;;
13560;SDS011;6852;51.686;5.314;2022-09-01T11:44:12;1.00;;;0.60;;
13560;SDS011;6852;51.686;5.314;2022-09-01T11:46:44;1.80;;;0.77;;
13560;SDS011;6852;51.686;5.314;2022-09-01T11:52:02;1.55;;;0.55;;
13560;SDS011;6852;51.686;5.314;2022-09-01T11:54:40;1.02;;;0.50;;
13560;SDS011;6852;51.686;5.314;2022-09-01T11:57:18;1.55;;;0.70;;
13560;SDS011;6852;51.686;5.314;2022-09-01T11:59:51;1.23;;;0.60;;
13560;SDS011;6852;51.686;5.314;2022-09-01T12:02:20;2.13;;;0.70;;
13560;SDS011;6852;51.686;5.314;2022-09-01T12:04:51;2.60;;;0.68;;
13560;SDS011;6852;51.686;5.314;2022-09-01T12:07:29;2.53;;;1.13;;
13560;SDS011;6852;51.686;5.314;2022-09-01T12:10:27;1.27;;;0.80;;
13560;SDS011;6852;51.686;5.314;2022-09-01T12:13:00;0.98;;;0.70;;
13560;SDS011;6852;51.686;5.314;2022-09-01T12:15:35;0.98;;;0.80;;
13560;SDS011;6852;51.686;5.314;2022-09-01T12:18:28;1.90;;;0.80;;
13560;SDS011;6852;51.686;5.314;2022-09-01T12:20:59;2.42;;;0.70;;
13560;SDS011;6852;51.686;5.314;2022-09-01T12:25:56;1.27;;;0.70;;
13560;SDS011;6852;51.686;5.314;2022-09-01T12:28:27;2.00;;;0.50;;
13560;SDS011;6852;51.686;5.314;2022-09-01T12:31:01;0.88;;;0.50;;
13560;SDS011;6852;51.686;5.314;2022-09-01T12:33:33;1.95;;;0.90;;
13560;SDS011;6852;51.686;5.314;2022-09-01T12:38:47;3.33;;;0.80;;
13560;SDS011;6852;51.686;5.314;2022-09-01T12:41:31;3.22;;;0.60;;
13560;SDS011;6852;51.686;5.314;2022-09-01T12:46:57;0.98;;;0.50;;
13560;SDS011;6852;51.686;5.314;2022-09-01T12:49:42;0.88;;;0.40;;
13560;SDS011;6852;51.686;5.314;2022-09-01T12:54:47;2.70;;;0.70;;
13560;SDS011;6852;51.686;5.314;2022-09-01T12:57:34;2.53;;;0.55;;
13560;SDS011;6852;51.686;5.314;2022-09-01T13:00:20;2.88;;;0.85;;
13560;SDS011;6852;51.686;5.314;2022-09-01T13:02:49;0.85;;;0.52;;
13560;SDS011;6852;51.686;5.314;2022-09-01T13:11:06;0.85;;;0.50;;
13560;SDS011;6852;51.686;5.314;2022-09-01T13:13:39;2.15;;;0.60;;
13560;SDS011;6852;51.686;5.314;2022-09-01T13:16:08;1.20;;;0.50;;
13560;SDS011;6852;51.686;5.314;2022-09-01T13:18:39;2.63;;;0.70;;
13560;SDS011;6852;51.686;5.314;2022-09-01T13:21:29;4.07;;;0.82;;
13560;SDS011;6852;51.686;5.314;2022-09-01T13:23:56;3.30;;;0.50;;
13560;SDS011;6852;51.686;5.314;2022-09-01T13:26:23;1.52;;;0.50;;
13560;SDS011;6852;51.686;5.314;2022-09-01T13:28:51;3.35;;;0.63;;
13560;SDS011;6852;51.686;5.314;2022-09-01T13:31:19;2.72;;;0.57;;
13560;SDS011;6852;51.686;5.314;2022-09-01T13:33:54;1.50;;;0.70;;
13560;SDS011;6852;51.686;5.314;2022-09-01T13:36:41;2.33;;;0.50;;
13560;SDS011;6852;51.686;5.314;2022-09-01T13:39:11;1.70;;;0.70;;
13560;SDS011;6852;51.686;5.314;2022-09-01T13:41:38;1.33;;;0.70;;
13560;SDS011;6852;51.686;5.314;2022-09-01T13:44:05;3.80;;;0.63;;
13560;SDS011;6852;51.686;5.314;2022-09-01T13:46:36;1.40;;;0.52;;
13560;SDS011;6852;51.686;5.314;2022-09-01T13:49:23;2.22;;;0.80;;
13560;SDS011;6852;51.686;5.314;2022-09-01T13:52:10;0.95;;;0.70;;
13560;SDS011;6852;51.686;5.314;2022-09-01T13:54:38;1.00;;;0.68;;
13560;SDS011;6852;51.686;5.314;2022-09-01T13:57:05;1.00;;;0.60;;
13560;SDS011;6852;51.686;5.314;2022-09-01T13:59:32;2.80;;;0.90;;
13560;SDS011;6852;51.686;5.314;2022-09-01T14:01:59;1.88;;;0.50;;
13560;SDS011;6852;51.686;5.314;2022-09-01T14:04:26;1.20;;;0.90;;
13560;SDS011;6852;51.686;5.314;2022-09-01T14:06:53;1.75;;;0.98;;
13560;SDS011;6852;51.686;5.314;2022-09-01T14:09:20;2.10;;;0.60;;
13560;SDS011;6852;51.686;5.314;2022-09-01T14:11:47;2.58;;;0.60;;
13560;SDS011;6852;51.686;5.314;2022-09-01T14:14:17;1.58;;;0.77;;
13560;SDS011;6852;51.686;5.314;2022-09-01T14:16:44;2.63;;;0.60;;
13560;SDS011;6852;51.686;5.314;2022-09-01T14:19:11;2.78;;;0.73;;
13560;SDS011;6852;51.686;5.314;2022-09-01T14:21:38;1.02;;;0.70;;
13560;SDS011;6852;51.686;5.314;2022-09-01T14:24:05;3.22;;;0.68;;
13560;SDS011;6852;51.686;5.314;2022-09-01T14:26:32;1.75;;;0.60;;
13560;SDS011;6852;51.686;5.314;2022-09-01T14:28:59;1.27;;;0.70;;
13560;SDS011;6852;51.686;5.314;2022-09-01T14:31:27;3.03;;;0.55;;
13560;SDS011;6852;51.686;5.314;2022-09-01T14:33:57;1.52;;;0.60;;
13560;SDS011;6852;51.686;5.314;2022-09-01T14:36:25;0.95;;;0.60;;
13560;SDS011;6852;51.686;5.314;2022-09-01T14:38:52;0.95;;;0.60;;
13560;SDS011;6852;51.686;5.314;2022-09-01T14:41:20;3.83;;;0.70;;
13560;SDS011;6852;51.686;5.314;2022-09-01T14:43:52;0.85;;;0.60;;
13560;SDS011;6852;51.686;5.314;2022-09-01T14:46:24;2.22;;;1.10;;
13560;SDS011;6852;51.686;5.314;2022-09-01T14:48:52;1.40;;;0.50;;
13560;SDS011;6852;51.686;5.314;2022-09-01T14:51:26;2.78;;;1.75;;
13560;SDS011;6852;51.686;5.314;2022-09-01T14:54:14;2.97;;;0.70;;
13560;SDS011;6852;51.686;5.314;2022-09-01T14:56:41;1.42;;;0.68;;
13560;SDS011;6852;51.686;5.314;2022-09-01T14:59:28;1.63;;;0.68;;
13560;SDS011;6852;51.686;5.314;2022-09-01T15:01:54;1.65;;;0.70;;
13560;SDS011;6852;51.686;5.314;2022-09-01T15:04:22;1.77;;;0.60;;
13560;SDS011;6852;51.686;5.314;2022-09-01T15:06:49;1.60;;;0.70;;
13560;SDS011;6852;51.686;5.314;2022-09-01T15:09:16;1.73;;;0.50;;
13560;SDS011;6852;51.686;5.314;2022-09-01T15:11:44;0.60;;;0.60;;
13560;SDS011;6852;51.686;5.314;2022-09-01T15:14:12;1.83;;;0.60;;
13560;SDS011;6852;51.686;5.314;2022-09-01T15:16:39;1.23;;;0.73;;
13560;SDS011;6852;51.686;5.314;2022-09-01T15:19:10;1.98;;;0.75;;
13560;SDS011;6852;51.686;5.314;2022-09-01T15:21:39;1.70;;;0.82;;
13560;SDS011;6852;51.686;5.314;2022-09-01T15:24:07;1.10;;;0.80;;
13560;SDS011;6852;51.686;5.314;2022-09-01T15:26:35;1.52;;;0.70;;
13560;SDS011;6852;51.686;5.314;2022-09-01T15:29:04;2.07;;;0.60;;
13560;SDS011;6852;51.686;5.314;2022-09-01T15:31:32;1.20;;;0.60;;
13560;SDS011;6852;51.686;5.314;2022-09-01T15:34:00;1.80;;;0.80;;
13560;SDS011;6852;51.686;5.314;2022-09-01T15:36:29;3.73;;;0.90;;
13560;SDS011;6852;51.686;5.314;2022-09-01T15:38:56;2.30;;;0.90;;
13560;SDS011;6852;51.686;5.314;2022-09-01T15:41:25;1.80;;;0.83;;
13560;SDS011;6852;51.686;5.314;2022-09-01T15:43:54;2.83;;;0.90;;
13560;SDS011;6852;51.686;5.314;2022-09-01T15:46:22;3.77;;;1.00;;
13560;SDS011;6852;51.686;5.314;2022-09-01T15:48:57;2.50;;;0.53;;
13560;SDS011;6852;51.686;5.314;2022-09-01T15:51:34;1.17;;;0.70;;
13560;SDS011;6852;51.686;5.314;2022-09-01T15:54:04;0.90;;;0.50;;
13560;SDS011;6852;51.686;5.314;2022-09-01T15:56:37;2.28;;;0.85;;
13560;SDS011;6852;51.686;5.314;2022-09-01T15:59:05;2.93;;;0.80;;
13560;SDS011;6852;51.686;5.314;2022-09-01T16:01:33;3.23;;;0.80;;
13560;SDS011;6852;51.686;5.314;2022-09-01T16:04:05;4.17;;;0.80;;
13560;SDS011;6852;51.686;5.314;2022-09-01T16:06:33;1.53;;;0.70;;
13560;SDS011;6852;51.686;5.314;2022-09-01T16:09:00;5.30;;;0.83;;
13560;SDS011;6852;51.686;5.314;2022-09-01T16:11:28;1.53;;;0.77;;
13560;SDS011;6852;51.686;5.314;2022-09-01T16:13:55;2.90;;;0.80;;
13560;SDS011;6852;51.686;5.314;2022-09-01T16:20:03;2.17;;;0.83;;
13560;SDS011;6852;51.686;5.314;2022-09-01T16:24:43;3.13;;;1.00;;
13560;SDS011;6852;51.686;5.314;2022-09-01T16:27:14;1.57;;;0.77;;
13560;SDS011;6852;51.686;5.314;2022-09-01T16:29:50;2.57;;;0.87;;
13560;SDS011;6852;51.686;5.314;2022-09-01T16:32:20;1.30;;;0.80;;
13560;SDS011;6852;51.686;5.314;2022-09-01T16:34:51;1.73;;;1.00;;
13560;SDS011;6852;51.686;5.314;2022-09-01T16:40:02;3.83;;;1.03;;
13560;SDS011;6852;51.686;5.314;2022-09-01T16:48:14;1.67;;;0.87;;
13560;SDS011;6852;51.686;5.314;2022-09-01T16:59:54;1.93;;;1.10;;
13560;SDS011;6852;51.686;5.314;2022-09-01T17:08:12;2.75;;;1.08;;
13560;SDS011;6852;51.686;5.314;2022-09-01T17:10:57;3.30;;;0.68;;
13560;SDS011;6852;51.686;5.314;2022-09-01T17:13:35;3.72;;;1.00;;
13560;SDS011;6852;51.686;5.314;2022-09-01T17:16:20;2.20;;;0.90;;
13560;SDS011;6852;51.686;5.314;2022-09-01T17:19:06;3.22;;;1.00;;
13560;SDS011;6852;51.686;5.314;2022-09-01T17:21:39;1.13;;;1.00;;
13560;SDS011;6852;51.686;5.314;2022-09-01T17:24:22;3.35;;;1.05;;
13560;SDS011;6852;51.686;5.314;2022-09-01T17:26:57;2.60;;;1.75;;